createdAt,value
2023-04-15T00:01:05.640Z,13
2023-04-15T00:02:36.040Z,13
2023-04-15T00:04:06.181Z,13
2023-04-15T00:06:08.543Z,13
2023-04-15T00:07:39.003Z,13
2023-04-15T00:09:09.246Z,13
2023-04-15T00:10:39.582Z,13
2023-04-15T00:12:09.902Z,13
2023-04-15T00:13:40.293Z,13
2023-04-15T00:15:42.725Z,13
2023-04-15T00:17:13.120Z,13
2023-04-15T00:18:43.585Z,13
2023-04-15T00:20:45.850Z,13
2023-04-15T00:22:48.271Z,13
2023-04-15T00:24:18.751Z,13
2023-04-15T00:25:48.973Z,13
2023-04-15T00:27:19.340Z,13
2023-04-15T00:28:49.837Z,13
2023-04-15T00:30:52.233Z,13
2023-04-15T00:32:22.669Z,13
2023-04-15T00:33:53.005Z,13
2023-04-15T00:35:55.440Z,13
2023-04-15T00:37:25.669Z,13
2023-04-15T00:38:56.017Z,13
2023-04-15T00:40:26.413Z,13
2023-04-15T00:41:56.610Z,13
2023-04-15T00:43:27.066Z,13
2023-04-15T00:45:29.544Z,13
2023-04-15T00:46:59.740Z,13
2023-04-15T00:48:30.034Z,13
2023-04-15T00:50:00.470Z,13
2023-04-15T00:51:30.664Z,13
2023-04-15T00:53:01.081Z,13
2023-04-15T00:54:31.530Z,13
2023-04-15T00:56:01.946Z,13
2023-04-15T00:57:32.327Z,13
2023-04-15T00:59:02.679Z,13
2023-04-15T01:01:05.047Z,13
2023-04-15T01:02:35.487Z,13
2023-04-15T01:04:05.862Z,13
2023-04-15T01:06:08.245Z,13
2023-04-15T01:07:38.644Z,13
2023-04-15T01:09:09.111Z,13
2023-04-15T01:10:39.505Z,13
2023-04-15T01:12:09.900Z,13
2023-04-15T01:13:40.163Z,13
2023-04-15T01:15:10.531Z,13
2023-04-15T01:16:40.789Z,13
2023-04-15T01:18:11.032Z,13
2023-04-15T01:19:41.528Z,13
2023-04-15T01:21:43.964Z,13
2023-04-15T01:23:14.373Z,13
2023-04-15T01:24:44.729Z,13
2023-04-15T01:26:15.108Z,13
2023-04-15T01:27:45.533Z,13
2023-04-15T01:29:15.874Z,13
2023-04-15T01:30:46.274Z,13
2023-04-15T01:32:16.703Z,13
2023-04-15T01:33:47.191Z,13
2023-04-15T01:35:17.525Z,13
2023-04-15T01:36:47.979Z,13
2023-04-15T01:38:18.368Z,13
2023-04-15T01:39:48.857Z,13
2023-04-15T01:41:19.199Z,13
2023-04-15T01:42:49.528Z,13
2023-04-15T01:44:20.003Z,13
2023-04-15T01:46:22.420Z,13
2023-04-15T01:47:52.983Z,13
2023-04-15T01:49:23.122Z,13
2023-04-15T01:50:53.478Z,13
2023-04-15T01:52:23.908Z,13
2023-04-15T01:53:54.307Z,13
2023-04-15T01:55:24.669Z,13
2023-04-15T01:57:27.098Z,13
2023-04-15T01:58:57.607Z,13
2023-04-15T02:00:28.012Z,13
2023-04-15T02:01:58.380Z,13
2023-04-15T02:03:28.877Z,13
2023-04-15T02:04:59.234Z,13
2023-04-15T02:06:29.770Z,13
2023-04-15T02:08:32.189Z,13
2023-04-15T02:10:02.651Z,13
2023-04-15T02:12:05.077Z,13
2023-04-15T02:13:35.491Z,13
2023-04-15T02:15:05.959Z,13
2023-04-15T02:17:08.385Z,13
2023-04-15T02:18:38.741Z,13
2023-04-15T02:20:09.053Z,12
2023-04-15T02:21:39.464Z,12
2023-04-15T02:23:09.860Z,12
2023-04-15T02:24:40.289Z,12
2023-04-15T02:26:10.741Z,12
2023-04-15T02:28:13.188Z,12
2023-04-15T02:29:43.601Z,12
2023-04-15T02:31:13.988Z,12
2023-04-15T02:32:44.256Z,12
2023-04-15T02:34:14.574Z,12
2023-04-15T02:35:45.017Z,12
2023-04-15T02:37:47.444Z,12
2023-04-15T02:39:17.860Z,12
2023-04-15T02:40:48.313Z,12
2023-04-15T02:42:18.699Z,12
2023-04-15T02:43:49.119Z,12
2023-04-15T02:45:19.466Z,12
2023-04-15T02:46:49.847Z,12
2023-04-15T02:48:20.169Z,12
2023-04-15T02:49:50.618Z,12
2023-04-15T02:51:21.043Z,12
2023-04-15T02:52:51.522Z,12
2023-04-15T02:54:21.949Z,12
2023-04-15T02:55:52.400Z,12
2023-04-15T02:57:22.778Z,12
2023-04-15T02:58:53.206Z,12
2023-04-15T03:00:23.563Z,12
2023-04-15T03:01:54.204Z,12
2023-04-15T03:03:24.643Z,12
2023-04-15T03:04:55.008Z,12
2023-04-15T03:06:25.449Z,12
2023-04-15T03:08:27.882Z,12
2023-04-15T03:11:35.433Z,12
2023-04-15T03:13:36.094Z,12
2023-04-15T03:15:06.532Z,12
2023-04-15T03:16:36.941Z,12
2023-04-15T03:18:07.375Z,12
2023-04-15T03:19:37.774Z,12
2023-04-15T03:21:08.178Z,12
2023-04-15T03:23:10.569Z,12
2023-04-15T03:24:40.983Z,12
2023-04-15T03:26:11.342Z,12
2023-04-15T03:27:41.721Z,12
2023-04-15T03:29:12.036Z,12
2023-04-15T03:30:42.523Z,12
2023-04-15T03:32:12.877Z,12
2023-04-15T03:33:43.300Z,12
2023-04-15T03:35:13.716Z,12
2023-04-15T03:36:44.089Z,12
2023-04-15T03:38:14.447Z,12
2023-04-15T03:39:44.794Z,12
2023-04-15T03:41:15.234Z,12
2023-04-15T03:42:45.619Z,12
2023-04-15T03:44:16.029Z,12
2023-04-15T03:45:46.388Z,12
2023-04-15T03:47:48.861Z,12
2023-04-15T03:49:19.245Z,12
2023-04-15T03:50:49.635Z,12
2023-04-15T03:52:52.053Z,12
2023-04-15T03:54:22.444Z,12
2023-04-15T03:55:52.900Z,12
2023-04-15T03:57:23.281Z,12
2023-04-15T03:58:53.705Z,12
2023-04-15T04:00:24.077Z,12
2023-04-15T04:02:26.753Z,12
2023-04-15T04:03:57.000Z,12
2023-04-15T04:05:27.484Z,12
2023-04-15T04:07:29.919Z,12
2023-04-15T04:09:00.535Z,12
2023-04-15T04:10:30.706Z,12
2023-04-15T04:12:01.062Z,12
2023-04-15T04:13:31.485Z,12
2023-04-15T04:15:01.913Z,12
2023-04-15T04:16:32.382Z,12
2023-04-15T04:18:34.794Z,12
2023-04-15T04:20:05.219Z,12
2023-04-15T04:21:35.658Z,12
2023-04-15T04:23:06.037Z,12
2023-04-15T04:24:36.490Z,12
2023-04-15T04:26:06.917Z,12
2023-04-15T04:27:37.311Z,12
2023-04-15T04:29:07.718Z,12
2023-04-15T04:30:38.079Z,12
2023-04-15T04:32:08.512Z,12
2023-04-15T04:33:38.889Z,12
2023-04-15T04:35:09.297Z,12
2023-04-15T04:36:39.701Z,12
2023-04-15T04:38:10.061Z,12
2023-04-15T04:39:40.479Z,12
2023-04-15T04:41:10.932Z,12
2023-04-15T04:42:41.294Z,12
2023-04-15T04:44:11.715Z,12
2023-04-15T04:45:42.215Z,12
2023-04-15T04:47:12.552Z,12
2023-04-15T04:48:43.131Z,12
2023-04-15T04:50:13.385Z,12
2023-04-15T04:51:43.725Z,12
2023-04-15T04:53:14.133Z,12
2023-04-15T04:54:44.572Z,12
2023-04-15T04:56:14.998Z,12
2023-04-15T04:57:45.392Z,12
2023-04-15T04:59:16.281Z,12
2023-04-15T05:00:46.296Z,12
2023-04-15T05:02:16.778Z,12
2023-04-15T05:03:47.170Z,12
2023-04-15T05:05:17.497Z,12
2023-04-15T05:06:47.947Z,12
2023-04-15T05:08:50.381Z,12
2023-04-15T05:10:20.728Z,12
2023-04-15T05:11:51.069Z,12
2023-04-15T05:13:21.420Z,12
2023-04-15T05:14:51.752Z,12
2023-04-15T05:16:22.231Z,12
2023-04-15T05:18:24.479Z,12
2023-04-15T05:19:54.890Z,12
2023-04-15T05:21:25.345Z,12
2023-04-15T05:22:55.693Z,12
2023-04-15T05:24:26.120Z,12
2023-04-15T05:25:56.549Z,12
2023-04-15T05:27:26.995Z,12
2023-04-15T05:29:29.423Z,12
2023-04-15T05:30:59.875Z,12
2023-04-15T05:32:30.171Z,12
2023-04-15T05:34:00.582Z,12
2023-04-15T05:35:30.996Z,12
2023-04-15T05:37:01.357Z,12
2023-04-15T05:38:31.745Z,12
2023-04-15T05:40:02.152Z,12
2023-04-15T05:41:32.538Z,12
2023-04-15T05:43:34.974Z,12
2023-04-15T05:45:05.376Z,12
2023-04-15T05:46:35.884Z,12
2023-04-15T05:48:38.247Z,12
2023-04-15T05:50:08.679Z,12
2023-04-15T05:51:39.024Z,12
2023-04-15T05:53:41.461Z,12
2023-04-15T05:55:11.895Z,12
2023-04-15T05:56:42.370Z,12
2023-04-15T05:58:12.841Z,12
2023-04-15T05:59:43.252Z,12
2023-04-15T06:01:13.822Z,12
2023-04-15T06:02:44.309Z,12
2023-04-15T06:04:14.659Z,12
2023-04-15T06:05:45.045Z,12
2023-04-15T06:07:15.377Z,12
2023-04-15T06:09:17.803Z,12
2023-04-15T06:10:48.175Z,12
2023-04-15T06:12:50.623Z,12
2023-04-15T06:14:21.018Z,12
2023-04-15T06:15:51.490Z,12
2023-04-15T06:17:53.921Z,12
2023-04-15T06:19:24.343Z,12
2023-04-15T06:20:54.833Z,12
2023-04-15T06:22:25.179Z,12
2023-04-15T06:23:55.579Z,12
2023-04-15T06:25:26.019Z,12
2023-04-15T06:26:56.487Z,12
2023-04-15T06:28:26.873Z,12
2023-04-15T06:29:57.273Z,12
2023-04-15T06:31:27.772Z,12
2023-04-15T06:32:58.120Z,12
2023-04-15T06:34:28.517Z,12
2023-04-15T06:35:58.893Z,12
2023-04-15T06:37:29.263Z,12
2023-04-15T06:38:59.773Z,12
2023-04-15T06:40:29.990Z,12
2023-04-15T06:42:00.357Z,12
2023-04-15T06:44:02.875Z,12
2023-04-15T06:45:33.233Z,12
2023-04-15T06:47:03.668Z,12
2023-04-15T06:49:06.090Z,12
2023-04-15T06:50:36.575Z,12
2023-04-15T06:52:06.924Z,12
2023-04-15T06:53:37.243Z,12
2023-04-15T06:55:07.663Z,12
2023-04-15T06:56:38.010Z,12
2023-04-15T06:58:08.403Z,12
2023-04-15T06:59:38.854Z,12
2023-04-15T07:01:09.308Z,12
2023-04-15T07:02:39.771Z,12
2023-04-15T07:04:10.115Z,12
2023-04-15T07:05:40.553Z,12
2023-04-15T07:07:42.981Z,12
2023-04-15T07:09:13.392Z,12
2023-04-15T07:10:43.743Z,12
2023-04-15T07:12:14.134Z,12
2023-04-15T07:13:44.558Z,12
2023-04-15T07:15:14.994Z,12
2023-04-15T07:16:45.460Z,12
2023-04-15T07:18:47.868Z,12
2023-04-15T07:20:18.282Z,12
2023-04-15T07:21:48.746Z,12
2023-04-15T07:23:19.392Z,12
2023-04-15T07:24:49.742Z,12
2023-04-15T07:26:20.088Z,12
2023-04-15T07:27:50.479Z,12
2023-04-15T07:29:20.888Z,12
2023-04-15T07:30:51.354Z,12
2023-04-15T07:32:21.679Z,12
2023-04-15T07:34:24.101Z,12
2023-04-15T07:35:54.513Z,12
2023-04-15T07:37:24.874Z,12
2023-04-15T07:39:27.315Z,12
2023-04-15T07:40:57.846Z,12
2023-04-15T07:42:28.296Z,12
2023-04-15T07:44:30.719Z,12
2023-04-15T07:46:01.166Z,12
2023-04-15T07:47:31.634Z,12
2023-04-15T07:49:02.183Z,12
2023-04-15T07:50:32.422Z,12
2023-04-15T07:52:02.875Z,12
2023-04-15T07:53:33.237Z,12
2023-04-15T07:55:03.715Z,12
2023-04-15T07:57:06.114Z,12
2023-04-15T07:58:36.556Z,12
2023-04-15T08:00:06.977Z,12
2023-04-15T08:01:37.470Z,12
2023-04-15T08:03:39.937Z,12
2023-04-15T08:05:10.307Z,12
2023-04-15T08:06:40.750Z,12
2023-04-15T08:08:43.184Z,12
2023-04-15T08:10:13.586Z,12
2023-04-15T08:11:44.050Z,12
2023-04-15T08:13:14.429Z,12
2023-04-15T08:14:44.855Z,12
2023-04-15T08:16:15.233Z,12
2023-04-15T08:18:17.670Z,12
2023-04-15T08:19:48.058Z,12
2023-04-15T08:21:18.511Z,12
2023-04-15T08:22:48.897Z,12
2023-04-15T08:24:19.312Z,12
2023-04-15T08:25:49.729Z,12
2023-04-15T08:27:20.080Z,12
2023-04-15T08:28:50.485Z,12
2023-04-15T08:30:20.910Z,13
2023-04-15T08:31:51.314Z,13
2023-04-15T08:33:21.649Z,13
2023-04-15T08:34:52.066Z,13
2023-04-15T08:36:22.510Z,13
2023-04-15T08:38:24.948Z,14
2023-04-15T08:39:55.351Z,14
2023-04-15T08:41:25.787Z,14
2023-04-15T08:42:56.086Z,14
2023-04-15T08:44:26.519Z,14
2023-04-15T08:45:56.921Z,14
2023-04-15T08:47:27.298Z,14
2023-04-15T08:48:57.800Z,14
2023-04-15T08:50:28.186Z,14
2023-04-15T08:51:58.644Z,14
2023-04-15T08:53:29.153Z,15
2023-04-15T08:54:59.554Z,15
2023-04-15T08:56:29.913Z,15
2023-04-15T08:58:32.334Z,15
2023-04-15T09:00:03.742Z,15
2023-04-15T09:01:33.302Z,15
2023-04-15T09:03:35.701Z,15
2023-04-15T09:05:06.103Z,15
2023-04-15T09:06:36.547Z,15
2023-04-15T09:08:06.947Z,15
2023-04-15T09:09:37.326Z,16
2023-04-15T09:11:07.658Z,16
2023-04-15T09:12:38.109Z,16
2023-04-15T09:14:08.495Z,16
2023-04-15T09:15:38.925Z,16
2023-04-15T09:17:09.273Z,16
2023-04-15T09:19:11.704Z,16
2023-04-15T09:20:42.149Z,16
2023-04-15T09:22:12.577Z,16
2023-04-15T09:23:42.971Z,16
2023-04-15T09:25:13.365Z,16
2023-04-15T09:26:43.787Z,16
2023-04-15T09:28:14.264Z,16
2023-04-15T09:30:16.684Z,17
2023-04-15T09:31:47.096Z,17
2023-04-15T09:33:17.567Z,17
2023-04-15T09:35:19.992Z,17
2023-04-15T09:36:51.119Z,17
2023-04-15T09:38:20.764Z,17
2023-04-15T09:40:23.193Z,17
2023-04-15T09:41:53.511Z,17
2023-04-15T09:43:23.861Z,17
2023-04-15T09:44:54.243Z,17
2023-04-15T09:46:24.681Z,17
2023-04-15T09:47:56.866Z,17
2023-04-15T09:49:25.565Z,17
2023-04-15T09:50:55.934Z,17
2023-04-15T09:52:26.389Z,17
2023-04-15T09:53:56.754Z,17
2023-04-15T09:55:27.095Z,17
2023-04-15T09:56:57.516Z,17
2023-04-15T09:58:27.968Z,17
2023-04-15T10:00:30.387Z,18
2023-04-15T10:02:00.760Z,18
2023-04-15T10:03:31.232Z,18
2023-04-15T10:05:01.449Z,18
2023-04-15T10:06:31.767Z,18
2023-04-15T10:08:02.169Z,18
2023-04-15T10:10:04.556Z,18
2023-04-15T10:11:34.878Z,18
2023-04-15T10:13:05.345Z,18
2023-04-15T10:15:07.773Z,18
2023-04-15T10:16:38.196Z,18
2023-04-15T10:18:08.661Z,18
2023-04-15T10:19:39.026Z,18
2023-04-15T10:21:09.453Z,18
2023-04-15T10:22:39.859Z,18
2023-04-15T10:24:10.237Z,18
2023-04-15T10:25:40.597Z,18
2023-04-15T10:27:11.025Z,18
2023-04-15T10:28:41.371Z,18
2023-04-15T10:30:11.761Z,18
2023-04-15T10:31:42.195Z,18
2023-04-15T10:33:12.649Z,18
2023-04-15T10:35:15.062Z,18
2023-04-15T10:36:45.372Z,18
2023-04-15T10:38:15.876Z,18
2023-04-15T10:39:46.248Z,18
2023-04-15T10:41:17.926Z,18
2023-04-15T10:42:47.000Z,18
2023-04-15T10:44:17.376Z,18
2023-04-15T10:45:47.701Z,19
2023-04-15T10:47:18.113Z,19
2023-04-15T10:48:48.466Z,19
2023-04-15T10:50:18.855Z,19
2023-04-15T10:51:49.273Z,19
2023-04-15T10:53:20.824Z,19
2023-04-15T10:55:22.082Z,19
2023-04-15T10:56:52.485Z,19
2023-04-15T10:58:22.957Z,19
2023-04-15T10:59:53.312Z,19
2023-04-15T11:01:23.673Z,19
2023-04-15T11:02:54.210Z,19
2023-04-15T11:04:24.504Z,19
2023-04-15T11:06:26.846Z,19
2023-04-15T11:07:57.254Z,19
2023-04-15T11:09:27.618Z,19
2023-04-15T11:10:58.020Z,19
2023-04-15T11:12:28.320Z,19
2023-04-15T11:13:58.776Z,19
2023-04-15T11:16:01.230Z,19
2023-04-15T11:17:31.670Z,19
2023-04-15T11:19:01.989Z,19
2023-04-15T11:21:04.414Z,19
2023-04-15T11:22:34.734Z,19
2023-04-15T11:24:05.345Z,19
2023-04-15T11:26:07.807Z,19
2023-04-15T11:27:38.137Z,19
2023-04-15T11:29:08.517Z,19
2023-04-15T11:30:38.877Z,19
2023-04-15T11:32:09.276Z,19
2023-04-15T11:33:39.562Z,19
2023-04-15T11:35:42.002Z,19
2023-04-15T11:37:12.417Z,19
2023-04-15T11:38:42.882Z,19
2023-04-15T11:40:13.261Z,19
2023-04-15T11:41:43.690Z,20
2023-04-15T11:43:14.025Z,20
2023-04-15T11:45:16.459Z,20
2023-04-15T11:46:46.884Z,20
2023-04-15T11:48:17.231Z,20
2023-04-15T11:49:47.616Z,20
2023-04-15T11:51:18.033Z,20
2023-04-15T11:52:48.454Z,20
2023-04-15T11:54:18.815Z,20
2023-04-15T11:56:21.235Z,20
2023-04-15T11:57:51.686Z,20
2023-04-15T11:59:22.291Z,20
2023-04-15T12:01:24.550Z,20
2023-04-15T12:02:54.911Z,20
2023-04-15T12:04:25.984Z,20
2023-04-15T12:05:55.606Z,20
2023-04-15T12:07:25.934Z,20
2023-04-15T12:08:56.379Z,20
2023-04-15T12:10:58.820Z,20
2023-04-15T12:12:29.230Z,20
2023-04-15T12:13:59.616Z,20
2023-04-15T12:16:02.096Z,20
2023-04-15T12:17:50.828Z,20
2023-04-15T12:19:02.905Z,20
2023-04-15T12:21:05.321Z,20
2023-04-15T12:22:35.755Z,20
2023-04-15T12:24:06.344Z,20
2023-04-15T12:26:08.637Z,20
2023-04-15T12:27:39.056Z,20
2023-04-15T12:29:09.440Z,20
2023-04-15T12:31:11.878Z,20
2023-04-15T12:32:43.495Z,20
2023-04-15T12:34:12.719Z,20
2023-04-15T12:35:43.119Z,20
2023-04-15T12:37:13.532Z,20
2023-04-15T12:38:43.952Z,20
2023-04-15T12:40:14.312Z,20
2023-04-15T12:42:16.752Z,20
2023-04-15T12:43:47.164Z,20
2023-04-15T12:45:17.643Z,20
2023-04-15T12:47:20.073Z,20
2023-04-15T12:48:50.462Z,20
2023-04-15T12:50:20.792Z,21
2023-04-15T12:51:51.206Z,21
2023-04-15T12:53:21.528Z,21
2023-04-15T12:54:51.999Z,21
2023-04-15T12:56:22.359Z,21
2023-04-15T12:57:52.793Z,21
2023-04-15T12:59:23.263Z,21
2023-04-15T13:00:53.639Z,21
2023-04-15T13:02:24.032Z,21
2023-04-15T13:03:54.419Z,21
2023-04-15T13:05:24.721Z,21
2023-04-15T13:07:27.147Z,21
2023-04-15T13:08:58.877Z,21
2023-04-15T13:10:28.054Z,21
2023-04-15T13:11:58.400Z,21
2023-04-15T13:13:28.827Z,21
2023-04-15T13:14:59.183Z,21
2023-04-15T13:17:01.640Z,21
2023-04-15T13:18:32.031Z,21
2023-04-15T13:20:02.389Z,21
2023-04-15T13:22:04.833Z,21
2023-04-15T13:23:35.237Z,21
2023-04-15T13:25:05.604Z,21
2023-04-15T13:26:35.982Z,21
2023-04-15T13:28:06.422Z,21
2023-04-15T13:29:36.854Z,21
2023-04-15T13:31:07.252Z,21
2023-04-15T13:32:37.598Z,21
2023-04-15T13:34:08.012Z,21
2023-04-15T13:35:38.304Z,21
2023-04-15T13:37:08.709Z,21
2023-04-15T13:38:39.121Z,21
2023-04-15T13:40:09.497Z,21
2023-04-15T13:42:11.913Z,21
2023-04-15T13:43:42.245Z,21
2023-04-15T13:45:12.691Z,21
2023-04-15T13:46:43.082Z,21
2023-04-15T13:48:13.539Z,21
2023-04-15T13:49:43.896Z,21
2023-04-15T13:51:14.239Z,21
2023-04-15T13:52:44.656Z,21
2023-04-15T13:54:15.119Z,21
2023-04-15T13:56:17.542Z,21
2023-04-15T13:57:47.969Z,22
2023-04-15T13:59:18.317Z,22
2023-04-15T14:00:48.716Z,22
2023-04-15T14:02:19.172Z,22
2023-04-15T14:03:49.618Z,22
2023-04-15T14:05:19.922Z,22
2023-04-15T14:06:50.383Z,22
2023-04-15T14:08:20.803Z,22
2023-04-15T14:09:51.171Z,22
2023-04-15T14:11:53.585Z,22
2023-04-15T14:13:24.006Z,22
2023-04-15T14:14:54.478Z,22
2023-04-15T14:16:24.887Z,22
2023-04-15T14:17:55.301Z,22
2023-04-15T14:19:25.724Z,22
2023-04-15T14:20:56.138Z,22
2023-04-15T14:22:26.535Z,22
2023-04-15T14:23:56.959Z,22
2023-04-15T14:25:33.571Z,22
2023-04-15T14:27:29.832Z,22
2023-04-15T14:29:00.145Z,22
2023-04-15T14:30:30.616Z,22
2023-04-15T14:32:04.397Z,22
2023-04-15T14:33:31.311Z,22
2023-04-15T14:35:01.678Z,22
2023-04-15T14:36:32.072Z,22
2023-04-15T14:38:02.465Z,22
2023-04-15T14:39:32.891Z,22
2023-04-15T14:41:03.350Z,22
2023-04-15T14:43:05.786Z,22
2023-04-15T14:44:36.202Z,22
2023-04-15T14:46:06.711Z,22
2023-04-15T14:48:09.092Z,22
2023-04-15T14:49:39.521Z,22
2023-04-15T14:51:10.011Z,22
2023-04-15T14:52:40.378Z,22
2023-04-15T14:54:10.767Z,22
2023-04-15T14:55:41.181Z,22
2023-04-15T14:57:11.502Z,22
2023-04-15T14:58:41.824Z,22
2023-04-15T15:00:14.608Z,22
2023-04-15T15:02:17.250Z,22
2023-04-15T15:03:45.122Z,22
2023-04-15T15:05:15.534Z,22
2023-04-15T15:07:17.942Z,22
2023-04-15T15:08:48.242Z,22
2023-04-15T15:10:32.806Z,23
2023-04-15T15:12:21.021Z,23
2023-04-15T15:13:51.340Z,23
2023-04-15T15:15:28.773Z,23
2023-04-15T15:17:24.186Z,23
2023-04-15T15:18:54.553Z,23
2023-04-15T15:20:24.944Z,23
2023-04-15T15:22:27.459Z,23
2023-04-15T15:23:57.767Z,23
2023-04-15T15:25:28.134Z,23
2023-04-15T15:26:58.503Z,23
2023-04-15T15:28:28.934Z,23
2023-04-15T15:29:59.345Z,23
2023-04-15T15:31:29.729Z,23
2023-04-15T15:33:32.135Z,23
2023-04-15T15:35:02.545Z,23
2023-04-15T15:36:32.907Z,23
2023-04-15T15:38:35.428Z,23
2023-04-15T15:40:05.755Z,23
2023-04-15T15:41:36.129Z,23
2023-04-15T15:43:38.548Z,23
2023-04-15T15:45:08.809Z,23
2023-04-15T15:47:11.252Z,23
2023-04-15T15:48:41.669Z,23
2023-04-15T15:50:12.005Z,23
2023-04-15T15:51:42.406Z,23
2023-04-15T15:53:12.807Z,23
2023-04-15T15:54:43.259Z,24
2023-04-15T15:56:13.688Z,24
2023-04-15T15:57:44.067Z,24
2023-04-15T15:59:14.494Z,24
2023-04-15T16:00:44.956Z,24
2023-04-15T16:04:17.927Z,24
2023-04-15T16:05:48.167Z,24
2023-04-15T16:07:50.587Z,23
2023-04-15T16:09:21.006Z,23
2023-04-15T16:10:51.398Z,23
2023-04-15T16:12:53.796Z,23
2023-04-15T16:14:24.115Z,23
2023-04-15T16:15:54.570Z,23
2023-04-15T16:17:57.062Z,23
2023-04-15T16:19:27.436Z,23
2023-04-15T16:20:57.918Z,23
2023-04-15T16:22:28.260Z,23
2023-04-15T16:23:58.719Z,23
2023-04-15T16:26:01.218Z,23
2023-04-15T16:28:11.708Z,24
2023-04-15T16:29:34.040Z,24
2023-04-15T16:31:04.518Z,24
2023-04-15T16:33:06.956Z,24
2023-04-15T16:34:37.375Z,24
2023-04-15T16:36:07.831Z,24
2023-04-15T16:38:10.242Z,24
2023-04-15T16:39:40.573Z,24
2023-04-15T16:41:11.071Z,24
2023-04-15T16:42:41.407Z,24
2023-04-15T16:44:11.831Z,24
2023-04-15T16:45:42.312Z,24
2023-04-15T16:47:12.677Z,24
2023-04-15T16:48:43.155Z,24
2023-04-15T16:50:13.669Z,24
2023-04-15T16:51:44.017Z,24
2023-04-15T16:53:14.467Z,24
2023-04-15T16:54:44.870Z,24
2023-04-15T16:56:15.334Z,24
2023-04-15T16:58:01.264Z,24
2023-04-15T16:59:16.123Z,24
2023-04-15T17:00:46.596Z,23
2023-04-15T17:02:17.062Z,23
2023-04-15T17:03:47.490Z,23
2023-04-15T17:05:17.816Z,23
2023-04-15T17:06:48.264Z,24
2023-04-15T17:08:18.651Z,24
2023-04-15T17:09:49.090Z,23
2023-04-15T17:11:19.720Z,23
2023-04-15T17:12:50.112Z,24
2023-04-15T17:14:20.523Z,24
2023-04-15T17:15:51.339Z,24
2023-04-15T17:17:53.343Z,24
2023-04-15T17:19:23.728Z,24
2023-04-15T17:20:54.193Z,24
2023-04-15T17:22:56.617Z,24
2023-04-15T17:24:27.053Z,24
2023-04-15T17:25:57.571Z,24
2023-04-15T17:27:28.033Z,24
2023-04-15T17:28:58.424Z,24
2023-04-15T17:30:28.837Z,24
2023-04-15T17:31:59.616Z,24
2023-04-15T17:33:56.019Z,24
2023-04-15T17:35:00.450Z,24
2023-04-15T17:37:03.030Z,24
2023-04-15T17:38:33.393Z,24
2023-04-15T17:40:04.811Z,24
2023-04-15T17:41:34.298Z,24
2023-04-15T17:43:04.695Z,24
2023-04-15T17:44:35.070Z,24
2023-04-15T17:46:05.440Z,24
2023-04-15T17:47:35.858Z,24
2023-04-15T17:49:06.337Z,24
2023-04-15T17:50:36.660Z,24
2023-04-15T17:52:07.116Z,24
2023-04-15T17:54:09.529Z,24
2023-04-15T17:55:39.870Z,24
2023-04-15T17:57:10.327Z,24
2023-04-15T17:58:40.819Z,24
2023-04-15T18:00:11.626Z,23
2023-04-15T18:01:42.135Z,23
2023-04-15T18:03:12.544Z,23
2023-04-15T18:04:42.927Z,23
2023-04-15T18:06:13.362Z,23
2023-04-15T18:07:43.919Z,23
2023-04-15T18:09:14.370Z,23
2023-04-15T18:10:44.767Z,23
2023-04-15T18:12:15.209Z,23
2023-04-15T18:13:45.634Z,22
2023-04-15T18:15:16.025Z,22
2023-04-15T18:16:46.395Z,22
2023-04-15T18:18:16.764Z,22
2023-04-15T18:19:47.203Z,22
2023-04-15T18:21:17.612Z,22
2023-04-15T18:22:48.057Z,22
2023-04-15T18:24:18.437Z,20
2023-04-15T18:25:48.861Z,21
2023-04-15T18:27:19.356Z,21
2023-04-15T18:28:49.728Z,22
2023-04-15T18:30:20.125Z,22
2023-04-15T18:31:50.586Z,22
2023-04-15T18:33:53.022Z,22
2023-04-15T18:35:23.481Z,23
2023-04-15T18:36:53.882Z,23
2023-04-15T18:38:24.305Z,23
2023-04-15T18:39:54.698Z,23
2023-04-15T18:41:25.113Z,23
2023-04-15T18:42:55.481Z,23
2023-04-15T18:44:25.894Z,23
2023-04-15T18:45:56.400Z,23
2023-04-15T18:47:27.182Z,23
2023-04-15T18:48:57.228Z,23
2023-04-15T18:50:27.643Z,23
2023-04-15T18:51:58.056Z,22
2023-04-15T18:53:28.514Z,22
2023-04-15T18:55:30.939Z,23
2023-04-15T18:57:01.327Z,23
2023-04-15T18:59:08.676Z,23
2023-04-15T19:00:02.159Z,23
2023-04-15T19:01:32.595Z,23
2023-04-15T19:03:03.121Z,23
2023-04-15T19:04:33.405Z,23
2023-04-15T19:06:03.774Z,23
2023-04-15T19:07:34.157Z,23
2023-04-15T19:09:04.645Z,23
2023-04-15T19:10:34.945Z,23
2023-04-15T19:12:05.402Z,23
2023-04-15T19:14:07.864Z,24
2023-04-15T19:16:10.495Z,24
2023-04-15T19:17:40.902Z,24
2023-04-15T19:19:11.238Z,24
2023-04-15T19:20:41.660Z,24
2023-04-15T19:22:12.141Z,24
2023-04-15T19:23:42.501Z,24
2023-04-15T19:25:12.916Z,24
2023-04-15T19:26:43.386Z,24
2023-04-15T19:28:13.777Z,23
2023-04-15T19:29:44.199Z,24
2023-04-15T19:31:14.702Z,24
2023-04-15T19:32:44.974Z,24
2023-04-15T19:34:47.392Z,23
2023-04-15T19:36:17.693Z,23
2023-04-15T19:37:48.067Z,23
2023-04-15T19:39:18.547Z,23
2023-04-15T19:40:48.968Z,23
2023-04-15T19:42:19.516Z,23
2023-04-15T19:43:49.912Z,23
2023-04-15T19:45:20.317Z,23
2023-04-15T19:46:50.772Z,23
2023-04-15T19:48:21.106Z,23
2023-04-15T19:49:52.710Z,23
2023-04-15T19:51:22.006Z,23
2023-04-15T19:52:52.382Z,23
2023-04-15T19:54:54.804Z,24
2023-04-15T19:56:25.218Z,24
2023-04-15T19:57:55.635Z,24
2023-04-15T19:59:26.054Z,24
2023-04-15T20:00:56.467Z,24
2023-04-15T20:02:26.964Z,24
2023-04-15T20:03:57.511Z,23
2023-04-15T20:05:27.830Z,23
2023-04-15T20:06:58.249Z,23
2023-04-15T20:08:28.714Z,24
2023-04-15T20:09:59.093Z,23
2023-04-15T20:12:04.967Z,23
2023-04-15T20:12:59.690Z,24
2023-04-15T20:14:30.049Z,24
2023-04-15T20:16:00.505Z,24
2023-04-15T20:17:30.929Z,24
2023-04-15T20:19:01.343Z,24
2023-04-15T20:21:03.772Z,24
2023-04-15T20:22:34.196Z,24
2023-04-15T20:24:04.803Z,24
2023-04-15T20:25:35.052Z,24
2023-04-15T20:27:05.457Z,24
2023-04-15T20:28:35.807Z,24
2023-04-15T20:30:06.197Z,24
2023-04-15T20:31:36.640Z,24
2023-04-15T20:33:07.153Z,24
2023-04-15T20:34:37.448Z,24
2023-04-15T20:36:07.886Z,24
2023-04-15T20:37:38.357Z,24
2023-04-15T20:39:08.699Z,24
2023-04-15T20:40:40.008Z,24
2023-04-15T20:42:09.439Z,24
2023-04-15T20:43:39.807Z,23
2023-04-15T20:45:10.179Z,22
2023-04-15T20:46:40.613Z,23
2023-04-15T20:48:11.118Z,23
2023-04-15T20:50:13.527Z,23
2023-04-15T20:52:15.968Z,22
2023-04-15T20:53:46.438Z,22
2023-04-15T20:55:48.876Z,23
2023-04-15T20:57:19.322Z,23
2023-04-15T20:58:49.868Z,23
2023-04-15T21:00:20.226Z,23
2023-04-15T21:01:50.709Z,23
2023-04-15T21:03:21.195Z,23
2023-04-15T21:04:51.489Z,23
2023-04-15T21:06:21.895Z,23
2023-04-15T21:07:52.324Z,23
2023-04-15T21:09:22.803Z,23
2023-04-15T21:10:53.172Z,23
2023-04-15T21:12:23.577Z,23
2023-04-15T21:13:53.924Z,23
2023-04-15T21:15:24.324Z,23
2023-04-15T21:16:54.764Z,23
2023-04-15T21:18:25.180Z,23
2023-04-15T21:19:55.622Z,23
2023-04-15T21:21:58.038Z,23
2023-04-15T21:23:28.486Z,23
2023-04-15T21:25:30.961Z,23
2023-04-15T21:27:01.359Z,23
2023-04-15T21:28:31.783Z,23
2023-04-15T21:30:07.366Z,23
2023-04-15T21:32:09.837Z,23
2023-04-15T21:33:40.240Z,23
2023-04-15T21:35:10.670Z,23
2023-04-15T21:37:13.108Z,23
2023-04-15T21:38:43.526Z,23
2023-04-15T21:40:13.972Z,23
2023-04-15T21:41:44.251Z,23
2023-04-15T21:43:14.571Z,23
2023-04-15T21:44:44.985Z,23
2023-04-15T21:46:23.791Z,23
2023-04-15T21:47:57.183Z,23
2023-04-15T21:49:16.312Z,23
2023-04-15T21:50:46.681Z,23
2023-04-15T21:52:17.089Z,23
2023-04-15T21:53:47.534Z,23
2023-04-15T21:55:17.962Z,23
2023-04-15T21:56:48.369Z,23
2023-04-15T21:58:18.769Z,23
2023-04-15T21:59:49.133Z,23
2023-04-15T22:01:51.674Z,23
2023-04-15T22:03:22.082Z,22
2023-04-15T22:04:52.363Z,22
2023-04-15T22:06:22.740Z,22
2023-04-15T22:07:53.131Z,23
2023-04-15T22:09:23.605Z,23
2023-04-15T22:11:26.029Z,23
2023-04-15T22:12:56.437Z,23
2023-04-15T22:14:26.813Z,23
2023-04-15T22:16:29.277Z,23
2023-04-15T22:17:59.672Z,23
2023-04-15T22:19:30.049Z,23
2023-04-15T22:21:00.413Z,23
2023-04-15T22:22:43.675Z,23
2023-04-15T22:24:31.574Z,23
2023-04-15T22:26:03.708Z,23
2023-04-15T22:27:34.128Z,23
2023-04-15T22:29:04.624Z,23
2023-04-15T22:30:34.852Z,23
2023-04-15T22:32:05.173Z,23
2023-04-15T22:33:35.592Z,23
2023-04-15T22:35:05.968Z,23
2023-04-15T22:37:08.425Z,23